createdAt,value
2019-05-29T00:01:56.281Z,1007.63
2019-05-29T00:02:36.629Z,1007.67
2019-05-29T00:03:17.031Z,1007.71
2019-05-29T00:03:57.449Z,1007.68
2019-05-29T00:04:37.852Z,1007.7
2019-05-29T00:05:58.678Z,1007.72
2019-05-29T00:06:39.097Z,1007.74
2019-05-29T00:07:19.677Z,1007.75
2019-05-29T00:08:00.068Z,1007.75
2019-05-29T00:08:40.501Z,1007.77
2019-05-29T00:09:20.828Z,1007.76
2019-05-29T00:10:01.211Z,1007.78
2019-05-29T00:10:41.603Z,1007.76
2019-05-29T00:11:22.002Z,1007.78
2019-05-29T00:12:02.429Z,1007.76
2019-05-29T00:13:23.317Z,1007.76
2019-05-29T00:14:17.706Z,1007.77
2019-05-29T00:14:44.107Z,1007.8
2019-05-29T00:15:24.488Z,1007.79
2019-05-29T00:16:06.137Z,1007.82
2019-05-29T00:16:45.288Z,1007.8
2019-05-29T00:17:25.703Z,1007.8
2019-05-29T00:18:06.307Z,1007.81
2019-05-29T00:18:46.566Z,1007.83
2019-05-29T00:19:26.981Z,1007.85
2019-05-29T00:20:08.275Z,1007.83
2019-05-29T00:20:47.833Z,1007.87
2019-05-29T00:21:28.252Z,1007.83
2019-05-29T00:22:08.658Z,1007.84
2019-05-29T00:22:49.047Z,1007.82
2019-05-29T00:23:29.449Z,1007.83
2019-05-29T00:24:10.377Z,1007.84
2019-05-29T00:24:50.283Z,1007.86
2019-05-29T00:25:30.691Z,1007.87
2019-05-29T00:26:11.112Z,1007.85
2019-05-29T00:26:51.538Z,1007.87
2019-05-29T00:27:31.967Z,1007.91
2019-05-29T00:28:12.635Z,1007.92
2019-05-29T00:28:52.795Z,1007.88
2019-05-29T00:29:33.230Z,1007.87
2019-05-29T00:30:14.890Z,1007.92
2019-05-29T00:30:54.040Z,1007.91
2019-05-29T00:31:34.465Z,1007.93
2019-05-29T00:32:15.135Z,1007.9
2019-05-29T00:32:55.314Z,1007.94
2019-05-29T00:33:35.735Z,1007.92
2019-05-29T00:34:17.196Z,1007.93
2019-05-29T00:34:56.546Z,1007.94
2019-05-29T00:35:36.975Z,1007.94
2019-05-29T00:36:17.393Z,1007.94
2019-05-29T00:36:57.803Z,1007.97
2019-05-29T00:38:18.553Z,1007.96
2019-05-29T00:38:58.950Z,1007.99
2019-05-29T00:39:39.346Z,1008.01
2019-05-29T00:40:19.809Z,1008.02
2019-05-29T00:41:00.129Z,1008.03
2019-05-29T00:41:40.510Z,1008.01
2019-05-29T00:42:20.908Z,1008.04
2019-05-29T00:43:01.279Z,1008.04
2019-05-29T00:43:41.697Z,1008.05
2019-05-29T00:44:33.805Z,1008.05
2019-05-29T00:45:02.519Z,1008.08
2019-05-29T00:45:42.948Z,1008.03
2019-05-29T00:46:23.378Z,1008.06
2019-05-29T00:47:03.785Z,1008.03
2019-05-29T00:47:44.175Z,1008.05
2019-05-29T00:48:24.555Z,1008.09
2019-05-29T00:49:04.930Z,1008.09
2019-05-29T00:49:45.320Z,1008.09
2019-05-29T00:50:25.740Z,1008.08
2019-05-29T00:51:06.149Z,1008.07
2019-05-29T00:51:46.566Z,1008.09
2019-05-29T00:52:26.997Z,1008.05
2019-05-29T00:53:08.057Z,1008.07
2019-05-29T00:53:47.830Z,1008.05
2019-05-29T00:54:28.256Z,1008.05
2019-05-29T00:55:49.052Z,1008.07
2019-05-29T00:56:29.441Z,1008.06
2019-05-29T00:57:10.868Z,1008.07
2019-05-29T00:57:50.210Z,1008.08
2019-05-29T00:58:30.621Z,1008.1
2019-05-29T00:59:11.117Z,1008.11
2019-05-29T00:59:51.426Z,1008.09
2019-05-29T01:00:31.866Z,1008.12
2019-05-29T01:01:13.374Z,1008.14
2019-05-29T01:01:52.695Z,1008.11
2019-05-29T01:02:33.109Z,1008.12
2019-05-29T01:03:13.762Z,1008.17
2019-05-29T01:03:53.968Z,1008.16
2019-05-29T01:04:34.370Z,1008.13
2019-05-29T01:05:16.057Z,1008.14
2019-05-29T01:05:55.191Z,1008.12
2019-05-29T01:06:35.615Z,1008.18
2019-05-29T01:07:16.314Z,1008.2
2019-05-29T01:07:56.400Z,1008.17
2019-05-29T01:08:36.811Z,1008.23
2019-05-29T01:09:17.232Z,1008.27
2019-05-29T01:09:57.678Z,1008.23
2019-05-29T01:10:38.075Z,1008.24
2019-05-29T01:11:18.875Z,1008.22
2019-05-29T01:16:22.505Z,1008.29
2019-05-29T01:17:12.157Z,1008.29
2019-05-29T01:19:25.953Z,1008.31
2019-05-29T01:20:06.309Z,1008.33
2019-05-29T01:20:46.731Z,1008.31
2019-05-29T01:21:27.140Z,1008.29
2019-05-29T01:22:07.564Z,1008.32
2019-05-29T01:22:48.027Z,1008.29
2019-05-29T01:23:28.366Z,1008.3
2019-05-29T01:24:08.744Z,1008.3
2019-05-29T01:24:49.305Z,1008.29
2019-05-29T01:25:29.504Z,1008.33
2019-05-29T01:26:09.898Z,1008.36
2019-05-29T01:26:50.312Z,1008.35
2019-05-29T01:28:11.130Z,1008.31
2019-05-29T01:28:51.568Z,1008.36
2019-05-29T01:29:31.964Z,1008.34
2019-05-29T01:30:13.123Z,1008.37
2019-05-29T01:30:52.767Z,1008.38
2019-05-29T01:31:33.162Z,1008.37
2019-05-29T01:32:13.580Z,1008.39
2019-05-29T01:32:54.213Z,1008.4
2019-05-29T01:33:34.606Z,1008.39
2019-05-29T01:34:15.632Z,1008.41
2019-05-29T01:35:37.696Z,1008.41
2019-05-29T01:36:18.189Z,1008.4
2019-05-29T01:36:58.516Z,1008.39
2019-05-29T01:37:38.888Z,1008.45
2019-05-29T01:38:19.358Z,1008.39
2019-05-29T01:38:59.733Z,1008.39
2019-05-29T01:39:40.402Z,1008.39
2019-05-29T01:40:25.047Z,1008.41
2019-05-29T01:41:02.236Z,1008.4
2019-05-29T01:41:44.459Z,1008.43
2019-05-29T01:42:24.927Z,1008.42
2019-05-29T01:43:05.229Z,1008.4
2019-05-29T01:43:45.704Z,1008.44
2019-05-29T01:44:26.060Z,1008.43
2019-05-29T01:45:08.331Z,1008.45
2019-05-29T01:45:47.048Z,1008.42
2019-05-29T01:46:27.796Z,1008.5
2019-05-29T01:47:07.732Z,1008.5
2019-05-29T01:47:48.125Z,1008.45
2019-05-29T01:48:28.540Z,1008.45
2019-05-29T01:49:08.915Z,1008.46
2019-05-29T01:49:49.329Z,1008.49
2019-05-29T01:50:29.689Z,1008.49
2019-05-29T01:51:10.125Z,1008.48
2019-05-29T01:51:50.497Z,1008.55
2019-05-29T01:52:31.326Z,1008.52
2019-05-29T01:53:11.718Z,1008.54
2019-05-29T01:53:52.089Z,1008.52
2019-05-29T01:54:32.531Z,1008.55
2019-05-29T01:55:12.899Z,1008.54
2019-05-29T01:55:53.297Z,1008.57
2019-05-29T01:56:33.708Z,1008.55
2019-05-29T01:57:14.121Z,1008.59
2019-05-29T01:57:54.531Z,1008.59
2019-05-29T01:58:34.969Z,1008.62
2019-05-29T01:59:15.683Z,1008.63
2019-05-29T01:59:55.706Z,1008.64
2019-05-29T02:00:36.101Z,1008.65
2019-05-29T02:01:17.852Z,1008.62
2019-05-29T02:01:56.877Z,1008.64
2019-05-29T02:02:37.297Z,1008.65
2019-05-29T02:03:17.816Z,1008.68
2019-05-29T02:03:58.153Z,1008.65
2019-05-29T02:04:38.529Z,1008.67
2019-05-29T02:05:19.965Z,1008.7
2019-05-29T02:05:59.467Z,1008.74
2019-05-29T02:06:39.875Z,1008.72
2019-05-29T02:08:00.701Z,1008.71
2019-05-29T02:08:41.111Z,1008.77
2019-05-29T02:09:22.085Z,1008.78
2019-05-29T02:10:01.888Z,1008.83
2019-05-29T02:10:42.284Z,1008.8
2019-05-29T02:11:23.319Z,1008.82
2019-05-29T02:12:03.102Z,1008.85
2019-05-29T02:12:43.510Z,1008.84
2019-05-29T02:13:23.866Z,1008.79
2019-05-29T02:14:04.236Z,1008.86
2019-05-29T02:14:44.626Z,1008.87
2019-05-29T02:15:31.893Z,1008.87
2019-05-29T02:16:05.414Z,1008.9
2019-05-29T02:16:45.777Z,1008.88
2019-05-29T02:18:06.610Z,1008.89
2019-05-29T02:18:47.037Z,1008.86
2019-05-29T02:19:28.178Z,1008.94
2019-05-29T02:20:07.863Z,1008.92
2019-05-29T02:20:48.289Z,1008.93
2019-05-29T02:21:28.699Z,1008.95
2019-05-29T02:22:09.164Z,1008.97
2019-05-29T02:22:49.543Z,1008.99
2019-05-29T02:23:29.968Z,1009
2019-05-29T02:24:10.382Z,1008.96
2019-05-29T02:25:31.213Z,1009.02
2019-05-29T02:26:11.642Z,1009.02
2019-05-29T02:26:52.070Z,1008.96
2019-05-29T02:27:32.497Z,1009.01
2019-05-29T02:28:12.901Z,1009.03
2019-05-29T02:28:53.327Z,1009.03
2019-05-29T02:29:33.734Z,1009.06
2019-05-29T02:30:14.179Z,1009.05
2019-05-29T02:30:54.538Z,1009.06
2019-05-29T02:31:34.944Z,1009.07
2019-05-29T02:32:15.337Z,1009.07
2019-05-29T02:32:55.771Z,1009.1
2019-05-29T02:33:36.134Z,1009.11
2019-05-29T02:34:17.489Z,1009.1
2019-05-29T02:34:56.944Z,1009.1
2019-05-29T02:35:37.359Z,1009.15
2019-05-29T02:36:17.925Z,1009.15
2019-05-29T02:36:58.213Z,1009.15
2019-05-29T02:37:38.616Z,1009.12
2019-05-29T02:38:20.448Z,1009.14
2019-05-29T02:38:59.497Z,1009.13
2019-05-29T02:39:39.916Z,1009.15
2019-05-29T02:40:21.148Z,1009.16
2019-05-29T02:41:00.714Z,1009.14
2019-05-29T02:41:41.131Z,1009.14
2019-05-29T02:42:22.669Z,1009.16
2019-05-29T02:43:01.976Z,1009.15
2019-05-29T02:43:42.384Z,1009.16
2019-05-29T02:44:23.434Z,1009.15
2019-05-29T02:45:03.217Z,1009.17
2019-05-29T02:45:53.408Z,1009.13
2019-05-29T02:46:25.906Z,1009.2
2019-05-29T02:47:04.437Z,1009.2
2019-05-29T02:47:44.863Z,1009.15
2019-05-29T02:48:27.272Z,1009.17
2019-05-29T02:49:05.711Z,1009.16
2019-05-29T02:49:46.134Z,1009.16
2019-05-29T02:50:28.394Z,1009.18
2019-05-29T02:51:07.061Z,1009.15
2019-05-29T02:51:47.453Z,1009.19
2019-05-29T02:52:28.665Z,1009.18
2019-05-29T02:53:08.276Z,1009.17
2019-05-29T02:53:48.687Z,1009.12
2019-05-29T02:54:29.933Z,1009.16
2019-05-29T02:55:09.542Z,1009.18
2019-05-29T02:55:49.965Z,1009.13
2019-05-29T02:56:31.248Z,1009.12
2019-05-29T02:57:10.849Z,1009.13
2019-05-29T02:57:51.278Z,1009.16
2019-05-29T02:58:31.952Z,1009.15
2019-05-29T02:59:12.048Z,1009.15
2019-05-29T02:59:52.474Z,1009.15
2019-05-29T03:00:32.894Z,1009.18
2019-05-29T03:01:13.305Z,1009.17
2019-05-29T03:01:53.736Z,1009.18
2019-05-29T03:02:34.153Z,1009.2
2019-05-29T03:03:14.590Z,1009.21
2019-05-29T03:03:55.024Z,1009.21
2019-05-29T03:04:35.445Z,1009.24
2019-05-29T03:05:15.851Z,1009.21
2019-05-29T03:05:56.327Z,1009.22
2019-05-29T03:06:36.730Z,1009.29
2019-05-29T03:07:17.128Z,1009.22
2019-05-29T03:07:57.501Z,1009.25
2019-05-29T03:08:37.933Z,1009.25
2019-05-29T03:09:18.348Z,1009.26
2019-05-29T03:09:58.771Z,1009.25
2019-05-29T03:10:39.184Z,1009.22
2019-05-29T03:11:19.598Z,1009.25
2019-05-29T03:12:00.586Z,1009.26
2019-05-29T03:12:40.431Z,1009.27
2019-05-29T03:13:20.793Z,1009.26
2019-05-29T03:14:01.156Z,1009.29
2019-05-29T03:14:41.615Z,1009.3
2019-05-29T03:15:23.492Z,1009.33
2019-05-29T03:16:10.277Z,1009.36
2019-05-29T03:16:42.863Z,1009.36
2019-05-29T03:17:23.730Z,1009.32
2019-05-29T03:18:03.715Z,1009.32
2019-05-29T03:18:44.145Z,1009.35
2019-05-29T03:19:25.912Z,1009.36
2019-05-29T03:20:04.994Z,1009.34
2019-05-29T03:20:45.419Z,1009.38
2019-05-29T03:21:26.126Z,1009.39
2019-05-29T03:22:06.275Z,1009.37
2019-05-29T03:22:46.691Z,1009.38
2019-05-29T03:23:28.396Z,1009.45
2019-05-29T03:24:07.483Z,1009.49
2019-05-29T03:24:47.900Z,1009.49
2019-05-29T03:25:28.434Z,1009.48
2019-05-29T03:26:08.702Z,1009.48
2019-05-29T03:26:49.114Z,1009.5
2019-05-29T03:27:29.922Z,1009.53
2019-05-29T03:28:09.941Z,1009.5
2019-05-29T03:28:50.380Z,1009.54
2019-05-29T03:29:31.922Z,1009.58
2019-05-29T03:30:11.247Z,1009.55
2019-05-29T03:30:51.651Z,1009.55
2019-05-29T03:31:39.235Z,1009.56
2019-05-29T03:32:14.307Z,1009.56
2019-05-29T03:32:52.921Z,1009.58
2019-05-29T03:33:40.435Z,1009.6
2019-05-29T03:34:13.738Z,1009.65
2019-05-29T03:34:54.132Z,1009.64
2019-05-29T03:35:42.911Z,1009.65
2019-05-29T03:36:14.974Z,1009.65
2019-05-29T03:36:55.395Z,1009.63
2019-05-29T03:37:35.807Z,1009.64
2019-05-29T03:38:16.215Z,1009.66
2019-05-29T03:38:56.618Z,1009.68
2019-05-29T03:40:17.417Z,1009.68
2019-05-29T03:40:57.855Z,1009.72
2019-05-29T03:41:38.942Z,1009.74
2019-05-29T03:42:18.695Z,1009.75
2019-05-29T03:42:59.112Z,1009.73
2019-05-29T03:43:39.538Z,1009.74
2019-05-29T03:44:19.949Z,1009.74
2019-05-29T03:45:00.391Z,1009.76
2019-05-29T03:45:40.782Z,1009.79
2019-05-29T03:46:30.986Z,1009.77
2019-05-29T03:47:01.597Z,1009.76
2019-05-29T03:47:41.951Z,1009.79
2019-05-29T03:48:22.360Z,1009.79
2019-05-29T03:49:02.780Z,1009.82
2019-05-29T03:49:43.205Z,1009.78
2019-05-29T03:50:23.624Z,1009.78
2019-05-29T03:51:04.051Z,1009.75
2019-05-29T03:51:44.466Z,1009.77
2019-05-29T03:52:26.264Z,1009.78
2019-05-29T03:53:05.322Z,1009.82
2019-05-29T03:53:45.752Z,1009.78
2019-05-29T03:54:26.568Z,1009.8
2019-05-29T03:55:06.597Z,1009.77
2019-05-29T03:55:47.046Z,1009.78
2019-05-29T03:56:28.221Z,1009.78
2019-05-29T03:57:48.292Z,1009.8
2019-05-29T03:58:28.939Z,1009.78
2019-05-29T03:59:09.128Z,1009.8
2019-05-29T03:59:49.546Z,1009.79
2019-05-29T04:00:36.197Z,1009.76
2019-05-29T04:01:10.545Z,1009.8
2019-05-29T04:01:50.841Z,1009.79
2019-05-29T04:02:32.874Z,1009.81
2019-05-29T04:03:11.641Z,1009.85
2019-05-29T04:03:52.002Z,1009.87
2019-05-29T04:04:33.462Z,1009.85
2019-05-29T04:05:12.795Z,1009.86
2019-05-29T04:05:53.151Z,1009.85
2019-05-29T04:06:35.351Z,1009.87
2019-05-29T04:07:13.955Z,1009.91
2019-05-29T04:07:54.328Z,1009.9
2019-05-29T04:08:35.668Z,1009.89
2019-05-29T04:09:15.146Z,1009.89
2019-05-29T04:09:55.512Z,1009.91
2019-05-29T04:11:53.042Z,1009.91
2019-05-29T04:13:45.453Z,1009.93
2019-05-29T04:14:27.445Z,1009.92
2019-05-29T04:15:06.292Z,1009.88
2019-05-29T04:15:46.696Z,1009.92
2019-05-29T04:16:27.537Z,1009.92
2019-05-29T04:17:47.962Z,1009.9
2019-05-29T04:18:29.622Z,1009.91
2019-05-29T04:19:08.782Z,1009.89
2019-05-29T04:19:49.212Z,1009.93
2019-05-29T04:20:29.664Z,1009.95
2019-05-29T04:21:10.054Z,1009.96
2019-05-29T04:21:50.481Z,1009.94
2019-05-29T04:22:32.468Z,1010
2019-05-29T04:23:11.319Z,1010.01
2019-05-29T04:23:51.743Z,1010.02
2019-05-29T04:24:33.769Z,1010.03
2019-05-29T04:25:12.587Z,1010.02
2019-05-29T04:25:53.006Z,1010.09
2019-05-29T04:26:33.984Z,1010.09
2019-05-29T04:27:13.889Z,1010.1
2019-05-29T04:27:54.284Z,1010.1
2019-05-29T04:28:36.752Z,1010.11
2019-05-29T05:05:42.990Z,1010.78
2019-05-29T05:06:23.379Z,1010.77
2019-05-29T05:07:03.776Z,1010.77
2019-05-29T05:07:44.199Z,1010.79
2019-05-29T05:08:24.622Z,1010.82
2019-05-29T05:09:05.106Z,1010.8
2019-05-29T05:09:45.444Z,1010.86
2019-05-29T05:10:25.857Z,1010.84
2019-05-29T05:11:06.285Z,1010.88
2019-05-29T05:11:47.888Z,1010.84
2019-05-29T05:12:29.574Z,1010.86
2019-05-29T05:13:09.347Z,1010.86
2019-05-29T05:13:49.782Z,1010.86
2019-05-29T05:14:31.211Z,1010.86
2019-05-29T05:15:10.641Z,1010.9
2019-05-29T05:15:51.033Z,1010.89
2019-05-29T05:16:31.707Z,1010.89
2019-05-29T05:17:25.135Z,1010.9
2019-05-29T05:17:52.325Z,1010.93
2019-05-29T05:18:33.772Z,1010.91
2019-05-29T05:20:47.151Z,1010.99
2019-05-29T05:21:27.587Z,1010.95
2019-05-29T05:22:08.013Z,1010.99
2019-05-29T05:22:48.437Z,1010.99
2019-05-29T05:23:30.009Z,1010.98
2019-05-29T05:24:09.290Z,1011.01
2019-05-29T05:24:50.532Z,1011.02
2019-05-29T05:25:32.065Z,1011.05
2019-05-29T05:26:11.382Z,1011.07
2019-05-29T05:26:51.801Z,1011.09
2019-05-29T05:27:32.234Z,1011.06
2019-05-29T05:28:12.657Z,1011.06
2019-05-29T05:28:53.116Z,1011.12
2019-05-29T05:29:34.147Z,1011.09
2019-05-29T05:30:13.954Z,1011.12
2019-05-29T05:30:54.355Z,1011.17
2019-05-29T05:31:34.961Z,1011.12
2019-05-29T05:32:15.207Z,1011.17
2019-05-29T05:32:55.627Z,1011.17
2019-05-29T05:33:36.676Z,1011.2
2019-05-29T05:34:16.500Z,1011.17
2019-05-29T05:34:56.940Z,1011.21
2019-05-29T05:35:37.378Z,1011.22
2019-05-29T05:36:17.797Z,1011.22
2019-05-29T05:36:58.246Z,1011.24
2019-05-29T05:37:38.911Z,1011.23
2019-05-29T05:38:59.530Z,1011.24
2019-05-29T05:39:41.162Z,1011.24
2019-05-29T05:40:20.388Z,1011.23
2019-05-29T05:41:41.306Z,1011.27
2019-05-29T05:42:21.743Z,1011.24
2019-05-29T05:43:02.205Z,1011.29
2019-05-29T05:43:43.171Z,1011.28
2019-05-29T05:44:23.602Z,1011.27
2019-05-29T05:45:04.027Z,1011.32
2019-05-29T05:45:44.451Z,1011.33
2019-05-29T05:46:28.215Z,1011.3
2019-05-29T05:47:08.591Z,1011.3
2019-05-29T05:47:56.767Z,1011.33
2019-05-29T05:48:29.410Z,1011.34
2019-05-29T05:49:09.846Z,1011.32
2019-05-29T05:49:50.291Z,1011.39
2019-05-29T05:50:31.059Z,1011.38
2019-05-29T05:51:11.144Z,1011.36
2019-05-29T05:53:24.337Z,1011.41
2019-05-29T05:54:04.817Z,1011.39
2019-05-29T05:54:45.373Z,1011.38
2019-05-29T05:55:25.647Z,1011.35
2019-05-29T05:56:06.081Z,1011.39
2019-05-29T05:56:46.544Z,1011.41
2019-05-29T05:57:26.973Z,1011.45
2019-05-29T05:58:07.439Z,1011.43
2019-05-29T05:58:47.896Z,1011.44
2019-05-29T05:59:28.429Z,1011.45
2019-05-29T06:00:08.838Z,1011.46
2019-05-29T06:00:50.160Z,1011.5
2019-05-29T06:01:33.847Z,1011.48
2019-05-29T06:02:14.663Z,1011.5
2019-05-29T06:03:35.878Z,1011.55
2019-05-29T06:04:15.642Z,1011.56
2019-05-29T06:04:56.129Z,1011.55
2019-05-29T06:05:36.545Z,1011.57
2019-05-29T06:06:16.960Z,1011.57
2019-05-29T06:06:57.347Z,1011.57
2019-05-29T06:08:49.809Z,1011.6
2019-05-29T06:09:32.648Z,1011.58
2019-05-29T06:10:12.520Z,1011.54
2019-05-29T06:10:52.966Z,1011.56
2019-05-29T06:12:13.894Z,1011.56
2019-05-29T06:12:54.317Z,1011.58
2019-05-29T06:13:34.764Z,1011.57
2019-05-29T06:14:15.196Z,1011.56
2019-05-29T06:14:55.629Z,1011.57
2019-05-29T06:15:36.470Z,1011.57
2019-05-29T06:16:16.500Z,1011.59
2019-05-29T06:16:58.810Z,1011.6
2019-05-29T06:17:39.229Z,1011.57
2019-05-29T06:18:21.372Z,1011.64
2019-05-29T06:19:00.086Z,1011.62
2019-05-29T06:19:41.126Z,1011.66
2019-05-29T06:20:20.929Z,1011.64
2019-05-29T06:21:01.460Z,1011.66
2019-05-29T06:24:48.227Z,1011.64
2019-05-29T06:25:28.627Z,1011.6
2019-05-29T06:26:09.045Z,1011.65
2019-05-29T06:26:49.475Z,1011.64
2019-05-29T06:27:29.905Z,1011.66
2019-05-29T06:28:10.586Z,1011.66
2019-05-29T06:28:51.924Z,1011.63
2019-05-29T06:29:33.473Z,1011.67
2019-05-29T06:30:12.798Z,1011.66
2019-05-29T06:30:53.238Z,1011.69
2019-05-29T06:31:33.687Z,1011.68
2019-05-29T06:32:14.089Z,1011.67
2019-05-29T06:32:54.576Z,1011.68
2019-05-29T06:33:35.248Z,1011.69
2019-05-29T06:34:15.550Z,1011.69
2019-05-29T06:34:55.993Z,1011.67
2019-05-29T06:35:37.541Z,1011.71
2019-05-29T06:36:17.016Z,1011.72
2019-05-29T06:36:57.718Z,1011.74
2019-05-29T06:37:39.464Z,1011.72
2019-05-29T06:38:18.627Z,1011.77
2019-05-29T06:38:59.040Z,1011.72
2019-05-29T06:39:39.672Z,1011.78
2019-05-29T06:40:21.132Z,1011.73
2019-05-29T06:41:01.491Z,1011.77
2019-05-29T06:42:22.330Z,1011.74
2019-05-29T06:43:02.774Z,1011.75
2019-05-29T06:43:44.277Z,1011.75
2019-05-29T06:44:25.485Z,1011.76
2019-05-29T06:45:06.012Z,1011.76
2019-05-29T06:45:47.274Z,1011.74
2019-05-29T06:46:27.262Z,1011.74
2019-05-29T06:47:08.351Z,1011.72
2019-05-29T06:47:49.521Z,1011.72
2019-05-29T06:48:42.301Z,1011.75
2019-05-29T06:49:12.329Z,1011.79
2019-05-29T06:51:26.643Z,1011.81
2019-05-29T06:52:09.230Z,1011.83
2019-05-29T06:52:48.701Z,1011.84
2019-05-29T06:53:28.259Z,1011.84
2019-05-29T06:54:08.752Z,1011.84
2019-05-29T06:54:49.187Z,1011.84
2019-05-29T06:55:29.596Z,1011.8
2019-05-29T06:56:10.075Z,1011.84
2019-05-29T07:02:38.464Z,1011.91
2019-05-29T07:03:18.748Z,1011.9
2019-05-29T07:04:11.664Z,1011.94
2019-05-29T07:04:42.557Z,1011.88
2019-05-29T07:05:24.469Z,1011.9
2019-05-29T07:06:04.932Z,1011.94
2019-05-29T07:06:45.431Z,1011.89
2019-05-29T07:07:26.123Z,1011.93
2019-05-29T07:08:17.748Z,1011.92
2019-05-29T07:08:48.684Z,1011.92
2019-05-29T07:09:28.812Z,1011.93
2019-05-29T07:12:44.698Z,1011.96
2019-05-29T07:13:25.077Z,1012.02
2019-05-29T07:14:06.374Z,1011.97
2019-05-29T07:14:46.608Z,1011.97
2019-05-29T07:15:26.891Z,1011.98
2019-05-29T07:16:08.063Z,1011.97
2019-05-29T07:16:55.491Z,1012.01
2019-05-29T07:17:29.682Z,1012.02
2019-05-29T07:18:10.405Z,1012.03
2019-05-29T07:19:23.708Z,1012.07
2019-05-29T07:20:13.446Z,1012.05
2019-05-29T07:20:53.954Z,1012.05
2019-05-29T07:21:36.732Z,1012.06
2019-05-29T07:22:17.052Z,1012.1
2019-05-29T07:22:57.500Z,1012.1
2019-05-29T07:23:38.757Z,1012.07
2019-05-29T07:24:20.407Z,1012.13
2019-05-29T07:25:00.464Z,1012.07
2019-05-29T07:25:41.089Z,1012.08
2019-05-29T07:26:22.512Z,1012.12
2019-05-29T07:27:02.428Z,1012.12
2019-05-29T07:27:43.040Z,1012.12
2019-05-29T07:28:23.479Z,1012.16
2019-05-29T07:29:08.213Z,1012.14
2019-05-29T07:29:45.546Z,1012.13
2019-05-29T07:30:26.230Z,1012.11
2019-05-29T07:31:07.521Z,1012.1
2019-05-29T07:31:48.305Z,1012.15
2019-05-29T07:32:29.672Z,1012.13
2019-05-29T07:33:11.157Z,1012.19
2019-05-29T07:33:52.171Z,1012.2
2019-05-29T07:34:49.602Z,1012.19
2019-05-29T07:35:13.276Z,1012.14
2019-05-29T07:35:53.720Z,1012.2
2019-05-29T07:36:34.198Z,1012.19
2019-05-29T07:37:14.610Z,1012.17
2019-05-29T07:37:59.000Z,1012.2
2019-05-29T07:40:11.613Z,1012.16
2019-05-29T07:40:52.026Z,1012.15
2019-05-29T07:41:32.513Z,1012.17
2019-05-29T07:42:12.959Z,1012.19
2019-05-29T07:42:56.516Z,1012.2
2019-05-29T07:43:33.956Z,1012.17
2019-05-29T07:44:14.439Z,1012.16
2019-05-29T07:44:57.213Z,1012.16
2019-05-29T07:45:37.778Z,1012.17
2019-05-29T07:46:17.300Z,1012.15
2019-05-29T07:46:58.659Z,1012.23
2019-05-29T07:47:40.649Z,1012.19
2019-05-29T07:49:02.215Z,1012.17
2019-05-29T07:49:44.736Z,1012.21
2019-05-29T07:50:26.725Z,1012.17
2019-05-29T07:51:08.129Z,1012.17
2019-05-29T07:51:50.092Z,1012.18
2019-05-29T07:52:33.171Z,1012.16
2019-05-29T07:53:14.419Z,1012.21
2019-05-29T07:53:55.471Z,1012.16
2019-05-29T07:54:35.938Z,1012.17
2019-05-29T07:55:16.359Z,1012.17
2019-05-29T07:55:56.848Z,1012.15
2019-05-29T07:56:38.284Z,1012.17
2019-05-29T07:57:17.873Z,1012.19
2019-05-29T07:57:58.386Z,1012.16
2019-05-29T07:58:38.841Z,1012.16
2019-05-29T07:59:19.442Z,1012.23
2019-05-29T08:00:00.180Z,1012.17
2019-05-29T08:01:00.762Z,1012.24
2019-05-29T08:01:21.019Z,1012.22
2019-05-29T08:02:01.501Z,1012.24
2019-05-29T08:03:22.534Z,1012.23
2019-05-29T08:04:06.780Z,1012.2
2019-05-29T08:04:49.756Z,1012.22
2019-05-29T08:05:29.332Z,1012.26
2019-05-29T08:06:09.785Z,1012.23
2019-05-29T08:06:54.298Z,1012.25
2019-05-29T08:07:30.864Z,1012.24
2019-05-29T08:08:11.507Z,1012.24
2019-05-29T08:08:51.903Z,1012.27
2019-05-29T08:09:32.296Z,1012.26
2019-05-29T08:10:12.732Z,1012.28
2019-05-29T08:10:54.200Z,1012.3
2019-05-29T08:12:14.555Z,1012.28
2019-05-29T08:12:56.096Z,1012.26
2019-05-29T08:13:36.744Z,1012.24
2019-05-29T08:14:17.418Z,1012.26
2019-05-29T08:14:58.059Z,1012.3
2019-05-29T08:15:53.825Z,1012.26
2019-05-29T08:16:19.320Z,1012.21
2019-05-29T08:17:00.581Z,1012.23
2019-05-29T08:17:42.011Z,1012.25
2019-05-29T08:19:03.282Z,1012.28
2019-05-29T08:19:59.127Z,1012.25
2019-05-29T08:21:57.474Z,1012.24
2019-05-29T08:22:37.871Z,1012.32
2019-05-29T08:23:19.114Z,1012.3
2019-05-29T08:23:59.077Z,1012.28
2019-05-29T08:24:40.673Z,1012.32
2019-05-29T08:25:20.235Z,1012.29
2019-05-29T08:26:01.741Z,1012.27
2019-05-29T08:26:43.095Z,1012.32
2019-05-29T08:27:23.837Z,1012.35
2019-05-29T08:28:04.259Z,1012.31
2019-05-29T08:28:44.803Z,1012.35
2019-05-29T08:29:25.087Z,1012.33
2019-05-29T08:30:05.518Z,1012.38
2019-05-29T08:30:51.617Z,1012.39
2019-05-29T08:31:26.399Z,1012.4
2019-05-29T08:32:06.986Z,1012.37
2019-05-29T08:33:28.942Z,1012.38
2019-05-29T08:34:09.549Z,1012.41
2019-05-29T08:34:51.133Z,1012.44
2019-05-29T08:35:30.386Z,1012.41
2019-05-29T08:37:04.716Z,1012.33
2019-05-29T08:37:32.066Z,1012.34
2019-05-29T08:38:12.492Z,1012.38
2019-05-29T08:38:53.112Z,1012.39
2019-05-29T08:39:36.717Z,1012.36
2019-05-29T08:40:14.139Z,1012.39
2019-05-29T08:40:55.332Z,1012.39
2019-05-29T08:41:35.031Z,1012.33
2019-05-29T08:42:22.909Z,1012.33
2019-05-29T08:42:55.964Z,1012.36
2019-05-29T08:43:36.406Z,1012.38
2019-05-29T08:44:16.871Z,1012.38
2019-05-29T08:44:57.466Z,1012.39
2019-05-29T08:45:38.001Z,1012.38
2019-05-29T08:46:18.850Z,1012.36
2019-05-29T08:47:09.391Z,1012.38
2019-05-29T08:47:41.457Z,1012.38
2019-05-29T08:48:20.718Z,1012.38
2019-05-29T08:49:01.142Z,1012.42
2019-05-29T08:49:41.777Z,1012.37
2019-05-29T08:50:21.981Z,1012.35
2019-05-29T08:51:02.391Z,1012.41
2019-05-29T08:51:43.866Z,1012.4
2019-05-29T08:52:24.897Z,1012.39
2019-05-29T08:53:05.324Z,1012.36
2019-05-29T08:53:46.393Z,1012.36
2019-05-29T08:54:26.242Z,1012.33
2019-05-29T08:55:07.913Z,1012.37
2019-05-29T08:55:49.227Z,1012.36
2019-05-29T08:56:29.080Z,1012.37
2019-05-29T08:57:09.499Z,1012.33
2019-05-29T08:57:50.406Z,1012.36
2019-05-29T08:58:30.467Z,1012.35
2019-05-29T08:59:11.013Z,1012.35
2019-05-29T08:59:53.296Z,1012.35
2019-05-29T09:00:33.756Z,1012.38
2019-05-29T09:01:14.410Z,1012.37
2019-05-29T09:01:55.521Z,1012.37
2019-05-29T09:02:35.333Z,1012.37
2019-05-29T09:03:15.840Z,1012.37
2019-05-29T09:03:56.290Z,1012.35
2019-05-29T09:04:36.699Z,1012.36
2019-05-29T09:05:17.129Z,1012.39
2019-05-29T09:06:08.298Z,1012.35
2019-05-29T09:08:10.688Z,1012.3
2019-05-29T09:08:52.771Z,1012.36
2019-05-29T09:09:31.757Z,1012.34
2019-05-29T09:10:12.481Z,1012.35
2019-05-29T09:10:54.551Z,1012.3
2019-05-29T09:11:33.756Z,1012.32
2019-05-29T09:12:14.288Z,1012.32
2019-05-29T09:13:04.237Z,1012.34
2019-05-29T09:15:10.117Z,1012.33
2019-05-29T09:15:50.359Z,1012.34
2019-05-29T09:16:30.579Z,1012.33
2019-05-29T09:17:14.562Z,1012.32
2019-05-29T09:17:55.277Z,1012.33
2019-05-29T09:18:35.654Z,1012.35
2019-05-29T09:19:16.365Z,1012.33
2019-05-29T09:19:56.621Z,1012.31
2019-05-29T09:21:00.651Z,1012.28
2019-05-29T09:21:19.063Z,1012.29
2019-05-29T09:21:57.967Z,1012.34
2019-05-29T09:22:38.427Z,1012.35
2019-05-29T09:23:19.235Z,1012.3
2019-05-29T09:25:37.410Z,1012.31
2019-05-29T09:26:22.810Z,1012.26
2019-05-29T09:27:02.090Z,1012.33
2019-05-29T09:27:47.579Z,1012.36
2019-05-29T09:28:28.962Z,1012.3
2019-05-29T09:29:50.268Z,1012.31
2019-05-29T09:30:30.889Z,1012.3
2019-05-29T09:31:11.370Z,1012.27
2019-05-29T09:31:53.850Z,1012.26
2019-05-29T09:32:49.197Z,1012.29
2019-05-29T09:33:21.463Z,1012.3
2019-05-29T09:34:00.564Z,1012.29
2019-05-29T09:34:41.006Z,1012.3
2019-05-29T09:35:22.973Z,1012.32
2019-05-29T09:36:01.967Z,1012.31
2019-05-29T09:36:42.926Z,1012.32
2019-05-29T09:37:24.495Z,1012.35
2019-05-29T09:38:06.124Z,1012.34
2019-05-29T09:38:46.824Z,1012.33
2019-05-29T09:39:27.417Z,1012.35
2019-05-29T09:40:08.117Z,1012.33
2019-05-29T09:40:51.974Z,1012.33
2019-05-29T09:42:12.970Z,1012.38